Dianalund, Denmark
Current Conditions -  °F | °C
As of 1:20 AM on Monday 26 Jan 2015 (Local Time) from EKRK Reporting Station
Moderate Fog Moderate Fog  
Wind Chill: 26°   Ceiling: 100
Heat Index: 32°   Visibility: 0.18mi
Dew Point: 32°   Wind: 6mph
Humidity: 100%   Direction: 210°SSW
Pressure: 30.15"   Gusts: NA
Location:  55.53°N, 11.49°E
Report Text: EKRK 260020Z AUTO 21005KT 0300NDV R11/0900VP1500D R29/1000VP1500DFG VV001 00/00 Q1021 R03/790222 R11/790217
Loading
Personal Weather Stations






























Interactive Weather Map New forecast layout! Learn more

10-Day Weather Forecast

Advertisements
Track Severe Weather on mobile